createdAt,value
2022-12-31T00:02:23.825Z,11.20
2022-12-31T00:05:27.193Z,11.63
2022-12-31T00:08:31.814Z,12.00
2022-12-31T00:11:36.603Z,10.03
2022-12-31T00:14:39.798Z,12.47
2022-12-31T00:17:43.033Z,10.30
2022-12-31T00:20:46.187Z,11.23
2022-12-31T00:23:50.863Z,11.67
2022-12-31T00:26:54.056Z,11.50
2022-12-31T00:30:00.920Z,12.20
2022-12-31T00:33:07.497Z,11.30
2022-12-31T00:36:13.994Z,12.20
2022-12-31T00:39:18.501Z,11.60
2022-12-31T00:42:21.641Z,10.63
2022-12-31T00:45:24.815Z,12.60
2022-12-31T00:48:28.463Z,9.43
2022-12-31T00:51:31.883Z,10.47
2022-12-31T00:54:36.968Z,14.10
2022-12-31T00:57:40.154Z,11.17
2022-12-31T01:00:43.305Z,13.80
2022-12-31T01:03:47.361Z,10.80
2022-12-31T01:06:50.550Z,10.93
2022-12-31T01:09:55.053Z,13.80
2022-12-31T01:12:58.271Z,13.63
2022-12-31T01:16:08.937Z,10.43
2022-12-31T01:19:14.460Z,14.50
2022-12-31T01:22:17.822Z,11.60
2022-12-31T01:25:22.463Z,12.10
2022-12-31T01:28:25.752Z,18.37
2022-12-31T01:31:29.438Z,17.27
2022-12-31T01:34:32.804Z,16.33
2022-12-31T01:37:35.953Z,13.73
2022-12-31T01:40:41.868Z,14.47
2022-12-31T01:43:50.419Z,14.50
2022-12-31T01:46:56.019Z,11.17
2022-12-31T01:50:04.255Z,12.10
2022-12-31T01:53:09.383Z,12.30
2022-12-31T01:56:14.457Z,10.07
2022-12-31T01:59:19.917Z,16.37
2022-12-31T02:02:23.893Z,23.37
2022-12-31T02:05:31.776Z,20.80
2022-12-31T02:08:41.802Z,21.73
2022-12-31T02:11:46.750Z,22.93
2022-12-31T02:14:54.342Z,19.33
2022-12-31T02:18:04.643Z,19.83
2022-12-31T02:21:32.241Z,25.30
2022-12-31T02:25:10.018Z,22.67
2022-12-31T02:28:26.616Z,24.70
2022-12-31T02:31:35.273Z,17.83
2022-12-31T02:34:42.682Z,20.17
2022-12-31T02:37:49.266Z,18.93
2022-12-31T02:40:54.341Z,19.13
2022-12-31T02:43:57.572Z,27.87
2022-12-31T02:47:11.440Z,14.07
2022-12-31T02:50:31.647Z,14.33
2022-12-31T02:53:53.968Z,10.10
2022-12-31T02:57:06.610Z,9.00
2022-12-31T03:00:30.746Z,10.27
2022-12-31T03:03:36.905Z,11.80
2022-12-31T03:06:41.095Z,8.97
2022-12-31T03:09:44.276Z,9.80
2022-12-31T03:12:48.587Z,8.50
2022-12-31T03:15:52.157Z,8.73
2022-12-31T03:19:13.768Z,8.53
2022-12-31T03:22:29.347Z,8.67
2022-12-31T03:25:35.458Z,12.93
2022-12-31T03:28:40.786Z,7.33
2022-12-31T03:31:43.963Z,7.17
2022-12-31T03:34:48.664Z,7.03
2022-12-31T03:37:52.371Z,7.60
2022-12-31T03:40:55.569Z,7.23
2022-12-31T03:43:58.777Z,9.33
2022-12-31T03:47:02.001Z,8.70
2022-12-31T03:50:08.847Z,8.13
2022-12-31T03:53:12.398Z,9.83
2022-12-31T03:56:15.560Z,11.00
2022-12-31T03:59:18.749Z,8.07
2022-12-31T04:02:28.047Z,9.40
2022-12-31T04:05:33.792Z,8.07
2022-12-31T04:08:37.024Z,7.03
2022-12-31T04:11:40.193Z,6.70
2022-12-31T04:14:43.434Z,7.77
2022-12-31T04:17:46.714Z,8.60
2022-12-31T04:20:51.278Z,8.23
2022-12-31T04:23:54.488Z,7.20
2022-12-31T04:27:03.572Z,7.67
2022-12-31T04:30:09.846Z,18.70
2022-12-31T04:33:13.116Z,15.50
2022-12-31T04:36:17.843Z,14.23
2022-12-31T04:39:21.025Z,17.43
2022-12-31T04:42:24.286Z,17.83
2022-12-31T04:45:27.453Z,17.00
2022-12-31T04:48:30.623Z,14.23
2022-12-31T04:51:35.390Z,16.57
2022-12-31T04:54:38.588Z,15.07
2022-12-31T04:57:43.795Z,9.43
2022-12-31T05:00:49.835Z,8.03
2022-12-31T05:03:53.106Z,11.23
2022-12-31T05:06:57.684Z,10.53
2022-12-31T05:10:00.865Z,10.40
2022-12-31T05:13:04.079Z,13.70
2022-12-31T05:16:08.709Z,13.50
2022-12-31T05:19:11.900Z,12.90
2022-12-31T05:22:31.888Z,11.00
2022-12-31T05:25:35.871Z,12.97
2022-12-31T05:28:39.066Z,28.27
2022-12-31T05:31:42.241Z,14.37
2022-12-31T05:34:45.789Z,9.30
2022-12-31T05:37:50.334Z,16.93
2022-12-31T05:41:00.994Z,14.73
2022-12-31T05:44:04.232Z,16.60
2022-12-31T05:47:07.419Z,11.03
2022-12-31T05:50:13.309Z,9.93
2022-12-31T05:53:17.916Z,8.57
2022-12-31T05:56:21.192Z,9.87
2022-12-31T05:59:24.393Z,11.13
2022-12-31T06:02:27.818Z,9.83
2022-12-31T06:05:31.004Z,9.57
2022-12-31T06:08:35.642Z,7.80
2022-12-31T06:11:38.821Z,8.40
2022-12-31T06:14:45.612Z,7.80
2022-12-31T06:17:49.127Z,7.40
2022-12-31T06:20:52.299Z,6.87
2022-12-31T06:23:57.153Z,6.87
2022-12-31T06:27:00.342Z,7.17
2022-12-31T06:30:03.566Z,6.87
2022-12-31T06:33:06.832Z,6.00
2022-12-31T06:36:13.510Z,10.30
2022-12-31T06:39:18.170Z,9.27
2022-12-31T06:42:21.381Z,6.03
2022-12-31T06:45:24.567Z,8.53
2022-12-31T06:48:30.367Z,7.07
2022-12-31T06:51:33.600Z,6.80
2022-12-31T06:54:39.027Z,6.10
2022-12-31T06:57:43.294Z,7.20
2022-12-31T07:00:56.607Z,8.27
2022-12-31T07:04:09.604Z,6.70
2022-12-31T07:07:21.277Z,8.73
2022-12-31T07:10:37.881Z,6.87
2022-12-31T07:13:55.555Z,9.20
2022-12-31T07:17:07.965Z,7.33
2022-12-31T07:20:13.740Z,7.00
2022-12-31T07:23:17.467Z,6.23
2022-12-31T07:26:35.201Z,7.37
2022-12-31T07:29:48.642Z,11.40
2022-12-31T07:33:20.494Z,13.73
2022-12-31T07:36:54.653Z,17.73
2022-12-31T07:40:05.180Z,15.90
2022-12-31T07:43:16.292Z,15.57
2022-12-31T07:46:27.660Z,19.27
2022-12-31T07:49:32.316Z,16.07
2022-12-31T07:52:36.094Z,14.67
2022-12-31T07:55:39.319Z,15.73
2022-12-31T07:58:59.117Z,13.63
2022-12-31T08:02:08.403Z,13.87
2022-12-31T08:05:19.525Z,17.87
2022-12-31T08:08:35.415Z,14.93
2022-12-31T08:11:49.165Z,16.60
2022-12-31T08:14:54.192Z,13.13
2022-12-31T08:17:58.021Z,12.13
2022-12-31T08:21:23.838Z,14.33
2022-12-31T08:24:36.643Z,16.67
2022-12-31T08:27:46.466Z,14.60
2022-12-31T08:30:59.211Z,11.73
2022-12-31T08:34:09.412Z,15.03
2022-12-31T08:37:19.409Z,17.37
2022-12-31T08:40:28.154Z,14.03
2022-12-31T08:43:44.513Z,12.40
2022-12-31T08:46:54.645Z,11.53
2022-12-31T08:49:58.464Z,13.83
2022-12-31T08:53:02.534Z,12.47
2022-12-31T08:56:13.859Z,12.20
2022-12-31T08:59:31.020Z,15.63
2022-12-31T09:03:05.811Z,15.50
2022-12-31T09:06:20.327Z,14.87
2022-12-31T09:09:32.270Z,17.23
2022-12-31T09:12:39.524Z,15.13
2022-12-31T09:15:47.729Z,13.90
2022-12-31T09:18:52.316Z,16.00
2022-12-31T09:21:56.218Z,14.00
2022-12-31T09:25:00.053Z,15.10
2022-12-31T09:28:15.129Z,15.20
2022-12-31T09:31:23.101Z,17.47
2022-12-31T09:34:33.312Z,17.33
2022-12-31T09:37:42.042Z,14.37
2022-12-31T09:40:54.013Z,11.00
2022-12-31T09:44:41.328Z,13.57
2022-12-31T09:48:27.436Z,10.23
2022-12-31T09:51:33.335Z,10.73
2022-12-31T09:54:53.409Z,10.30
2022-12-31T09:58:09.111Z,33.77
2022-12-31T10:01:24.027Z,14.10
2022-12-31T10:04:49.307Z,8.90
2022-12-31T10:08:00.651Z,9.10
2022-12-31T10:11:10.715Z,12.10
2022-12-31T10:14:40.987Z,9.90
2022-12-31T10:17:59.406Z,19.50
2022-12-31T10:21:26.980Z,33.40
2022-12-31T10:24:59.797Z,26.17
2022-12-31T10:28:15.374Z,45.37
2022-12-31T10:31:40.129Z,9.30
2022-12-31T10:34:54.763Z,9.70
2022-12-31T10:38:07.612Z,7.57
2022-12-31T10:41:54.430Z,5.73
2022-12-31T10:45:36.146Z,13.20
2022-12-31T10:49:11.068Z,5.43
2022-12-31T10:53:06.080Z,6.90
2022-12-31T10:56:41.678Z,5.93
2022-12-31T11:00:17.493Z,6.23
2022-12-31T11:03:57.282Z,4.90
2022-12-31T11:07:39.172Z,5.77
2022-12-31T11:11:15.889Z,10.83
2022-12-31T11:14:48.336Z,8.37
2022-12-31T11:18:03.615Z,7.27
2022-12-31T11:21:28.417Z,6.10
2022-12-31T11:24:44.174Z,8.30
2022-12-31T11:28:11.322Z,6.73
2022-12-31T11:31:29.935Z,4.93
2022-12-31T11:34:53.839Z,6.83
2022-12-31T11:38:11.245Z,11.53
2022-12-31T11:41:22.477Z,4.00
2022-12-31T11:44:37.292Z,4.03
2022-12-31T11:48:29.145Z,5.90
2022-12-31T11:51:44.258Z,5.23
2022-12-31T11:55:11.204Z,5.83
2022-12-31T11:58:17.171Z,12.87
2022-12-31T12:01:23.881Z,12.43
2022-12-31T12:04:27.297Z,11.33
2022-12-31T12:07:33.941Z,16.17
2022-12-31T12:10:42.228Z,16.13
2022-12-31T12:13:45.445Z,16.10
2022-12-31T12:16:54.431Z,15.40
2022-12-31T12:20:04.825Z,20.17
2022-12-31T12:23:18.649Z,19.30
2022-12-31T12:26:31.126Z,18.73
2022-12-31T12:29:36.318Z,21.03
2022-12-31T12:32:39.845Z,14.33
2022-12-31T12:35:43.007Z,14.27
2022-12-31T12:38:47.722Z,13.43
2022-12-31T12:42:03.585Z,14.20
2022-12-31T12:45:15.239Z,12.90
2022-12-31T12:48:30.998Z,13.00
2022-12-31T12:51:45.755Z,16.80
2022-12-31T12:55:06.293Z,13.77
2022-12-31T12:58:19.680Z,15.00
2022-12-31T13:01:31.412Z,16.00
2022-12-31T13:04:48.765Z,12.47
2022-12-31T13:08:03.849Z,17.43
2022-12-31T13:11:25.958Z,17.77
2022-12-31T13:14:36.069Z,15.17
2022-12-31T13:18:01.628Z,17.20
2022-12-31T13:21:19.257Z,14.00
2022-12-31T13:24:36.515Z,16.00
2022-12-31T13:27:44.622Z,14.93
2022-12-31T13:30:51.963Z,14.93
2022-12-31T13:34:00.503Z,13.63
2022-12-31T13:37:07.928Z,14.73
2022-12-31T13:40:20.873Z,16.83
2022-12-31T13:43:35.840Z,15.60
2022-12-31T13:46:44.220Z,14.90
2022-12-31T13:49:53.178Z,22.60
2022-12-31T13:52:59.799Z,20.80
2022-12-31T13:56:07.477Z,19.37
2022-12-31T13:59:17.483Z,15.43
2022-12-31T14:02:32.665Z,16.43
2022-12-31T14:05:39.596Z,15.47
2022-12-31T14:08:42.806Z,16.13
2022-12-31T14:12:03.564Z,15.00
2022-12-31T14:15:17.903Z,16.43
2022-12-31T14:18:29.372Z,14.47
2022-12-31T14:21:38.802Z,15.17
2022-12-31T14:24:46.387Z,18.90
2022-12-31T14:27:53.301Z,22.87
2022-12-31T14:31:05.891Z,17.53
2022-12-31T14:34:16.895Z,21.00
2022-12-31T14:37:31.042Z,16.80
2022-12-31T14:40:46.997Z,14.23
2022-12-31T14:44:01.284Z,18.00
2022-12-31T14:47:18.233Z,14.73
2022-12-31T14:50:26.242Z,10.33
2022-12-31T14:53:30.608Z,12.50
2022-12-31T14:56:41.681Z,11.93
2022-12-31T14:59:55.484Z,12.20
2022-12-31T15:03:02.865Z,17.33
2022-12-31T15:06:20.215Z,15.53
2022-12-31T15:09:51.290Z,17.27
2022-12-31T15:13:06.721Z,16.87
2022-12-31T15:16:34.174Z,15.83
2022-12-31T15:20:17.804Z,19.17
2022-12-31T15:23:24.400Z,18.30
2022-12-31T15:26:31.284Z,20.20
2022-12-31T15:29:37.918Z,19.20
2022-12-31T15:32:43.824Z,16.80
2022-12-31T15:35:52.460Z,19.90
2022-12-31T15:39:07.534Z,17.17
2022-12-31T15:42:38.721Z,17.17
2022-12-31T15:45:44.345Z,14.07
2022-12-31T15:48:55.452Z,14.23
2022-12-31T15:52:05.878Z,14.60
2022-12-31T15:55:15.771Z,13.07
2022-12-31T15:58:22.234Z,12.60
2022-12-31T16:01:29.813Z,17.17
2022-12-31T16:04:33.786Z,16.30
2022-12-31T16:07:40.084Z,14.40
2022-12-31T16:10:45.635Z,17.73
2022-12-31T16:13:52.107Z,19.50
2022-12-31T16:16:57.755Z,17.00
2022-12-31T16:20:02.368Z,14.10
2022-12-31T16:23:22.352Z,18.73
2022-12-31T16:26:31.272Z,22.73
2022-12-31T16:29:36.681Z,18.63
2022-12-31T16:32:41.037Z,18.60
2022-12-31T16:35:44.640Z,17.77
2022-12-31T16:38:49.495Z,23.30
2022-12-31T16:41:53.883Z,16.20
2022-12-31T16:44:58.774Z,15.93
2022-12-31T16:48:16.537Z,14.70
2022-12-31T16:51:23.840Z,15.47
2022-12-31T16:54:32.115Z,15.03
2022-12-31T16:57:36.103Z,17.23
2022-12-31T17:00:40.280Z,15.77
2022-12-31T17:03:47.166Z,16.53
2022-12-31T17:06:50.363Z,18.40
2022-12-31T17:10:03.480Z,16.53
2022-12-31T17:13:28.682Z,19.63
2022-12-31T17:16:33.131Z,18.20
2022-12-31T17:19:40.004Z,15.23
2022-12-31T17:22:44.105Z,15.13
2022-12-31T17:25:48.771Z,19.47
2022-12-31T17:28:55.261Z,13.97
2022-12-31T17:32:00.888Z,19.40
2022-12-31T17:35:24.312Z,17.57
2022-12-31T17:38:32.900Z,17.93
2022-12-31T17:41:37.462Z,21.33
2022-12-31T17:44:43.343Z,15.83
2022-12-31T17:47:51.068Z,17.87
2022-12-31T17:50:56.034Z,18.40
2022-12-31T17:54:01.149Z,16.80
2022-12-31T17:57:06.371Z,22.13
2022-12-31T18:00:18.785Z,20.97
2022-12-31T18:03:22.252Z,17.93
2022-12-31T18:06:26.726Z,24.13
2022-12-31T18:09:29.886Z,19.87
2022-12-31T18:12:34.601Z,21.03
2022-12-31T18:15:37.862Z,25.70
2022-12-31T18:18:42.319Z,22.50
2022-12-31T18:21:45.907Z,24.57
2022-12-31T18:24:52.335Z,26.13
2022-12-31T18:27:56.913Z,26.57
2022-12-31T18:31:00.431Z,26.20
2022-12-31T18:34:03.794Z,27.20
2022-12-31T18:37:14.013Z,22.90
2022-12-31T18:40:21.174Z,26.73
2022-12-31T18:43:26.166Z,24.20
2022-12-31T18:46:29.712Z,22.70
2022-12-31T18:49:32.881Z,23.60
2022-12-31T18:52:36.117Z,26.80
2022-12-31T18:55:42.331Z,30.37
2022-12-31T18:58:47.687Z,24.13
2022-12-31T19:01:50.920Z,21.17
2022-12-31T19:04:54.146Z,23.37
2022-12-31T19:07:58.144Z,21.70
2022-12-31T19:11:02.774Z,20.30
2022-12-31T19:14:16.461Z,18.73
2022-12-31T19:17:21.550Z,24.67
2022-12-31T19:20:24.813Z,18.17
2022-12-31T19:23:28.019Z,22.00
2022-12-31T19:26:31.146Z,20.57
2022-12-31T19:29:35.656Z,19.13
2022-12-31T19:32:38.809Z,23.33
2022-12-31T19:35:42.652Z,22.07
2022-12-31T19:38:46.602Z,26.70
2022-12-31T19:41:56.418Z,29.33
2022-12-31T19:45:03.859Z,29.67
2022-12-31T19:48:07.298Z,27.40
2022-12-31T19:51:11.707Z,25.50
2022-12-31T19:54:15.236Z,25.20
2022-12-31T19:57:18.397Z,17.97
2022-12-31T20:00:23.427Z,17.90
2022-12-31T20:03:26.962Z,19.07
2022-12-31T20:06:30.255Z,17.90
2022-12-31T20:09:33.418Z,18.90
2022-12-31T20:12:42.226Z,20.63
2022-12-31T20:15:49.231Z,22.20
2022-12-31T20:18:52.391Z,23.53
2022-12-31T20:21:55.613Z,21.57
2022-12-31T20:24:58.734Z,20.03
2022-12-31T20:28:01.927Z,25.97
2022-12-31T20:31:08.664Z,21.40
2022-12-31T20:34:13.400Z,20.90
2022-12-31T20:37:16.582Z,20.60
2022-12-31T20:40:20.230Z,26.37
2022-12-31T20:43:23.425Z,24.53
2022-12-31T20:46:30.104Z,25.97
2022-12-31T20:50:08.948Z,23.53
2022-12-31T20:52:56.596Z,22.13
2022-12-31T20:56:04.217Z,22.40
2022-12-31T20:59:08.960Z,23.23
2022-12-31T21:02:21.433Z,23.50
2022-12-31T21:05:25.194Z,29.77
2022-12-31T21:08:34.526Z,29.23
2022-12-31T21:11:55.421Z,23.17
2022-12-31T21:14:58.649Z,27.90
2022-12-31T21:18:03.233Z,27.77
2022-12-31T21:21:06.649Z,28.20
2022-12-31T21:24:10.163Z,31.40
2022-12-31T21:27:13.429Z,32.33
2022-12-31T21:30:18.769Z,30.50
2022-12-31T21:33:25.505Z,34.80
2022-12-31T21:36:28.765Z,35.63
2022-12-31T21:39:31.907Z,30.97
2022-12-31T21:42:35.117Z,33.00
2022-12-31T21:45:38.508Z,29.10
2022-12-31T21:48:43.041Z,30.33
2022-12-31T21:52:03.725Z,33.03
2022-12-31T21:55:25.281Z,27.03
2022-12-31T21:58:28.767Z,28.70
2022-12-31T22:01:49.561Z,26.77
2022-12-31T22:05:02.998Z,26.27
2022-12-31T22:08:07.325Z,33.20
2022-12-31T22:11:11.127Z,24.23
2022-12-31T22:14:14.326Z,27.70
2022-12-31T22:17:17.565Z,30.20
2022-12-31T22:20:29.519Z,26.43
2022-12-31T22:23:33.938Z,27.97
2022-12-31T22:26:40.371Z,29.50
2022-12-31T22:29:47.764Z,34.60
2022-12-31T22:32:50.997Z,33.57
2022-12-31T22:36:03.700Z,35.37
2022-12-31T22:39:06.861Z,32.73
2022-12-31T22:42:10.010Z,29.73
2022-12-31T22:45:13.296Z,34.13
2022-12-31T22:48:16.502Z,34.53
2022-12-31T22:51:21.910Z,39.17
2022-12-31T22:54:25.080Z,33.23
2022-12-31T22:57:28.219Z,43.40
2022-12-31T23:00:41.704Z,29.43
2022-12-31T23:03:45.081Z,31.83
2022-12-31T23:06:49.639Z,31.80
2022-12-31T23:10:09.925Z,46.50
2022-12-31T23:13:30.967Z,40.00
2022-12-31T23:16:51.669Z,47.47
2022-12-31T23:20:12.370Z,47.10
2022-12-31T23:23:18.249Z,62.30
2022-12-31T23:26:21.388Z,43.00
2022-12-31T23:29:25.274Z,41.30
2022-12-31T23:32:28.466Z,41.20
2022-12-31T23:35:31.621Z,48.20
2022-12-31T23:38:36.222Z,51.83
2022-12-31T23:41:39.379Z,50.77
2022-12-31T23:44:42.658Z,50.47
2022-12-31T23:47:45.811Z,52.33
2022-12-31T23:50:53.519Z,53.77
2022-12-31T23:53:58.797Z,51.87
2022-12-31T23:57:02.064Z,43.97
